Wind Cave National Park, SD

10:13 PM MST on February 13, 2016 (GMT -0700)
Hay Creek Road | | Change Station
CLOSE
Current Station
Personal Weather Station
Location: Custer, SD
Elevation: 5325 ft
Nearby Weather Stations

Elev 5325 ft 43.70 °N, 103.67 °W | Updated 12 seconds ago

Overcast
Overcast
33.6 °F
Feels Like 29 °F
N
4.5
Wind Variable Wind from West
Gusts 7.4 mph

Today
High -- | Low -- °F
--% Chance of Precip.
Yesterday
High -- | Low -- °F
Precip. -- in
Pressure 29.90 in
Visibility 10.0 miles
Clouds Mostly Cloudy 3200 ft
Overcast 4000 ft
Windchill 29 °F
Dew Point 23 °F
Humidity 65%
Rainfall 0.00 in
Snow Depth Not available.
6:56 AM 5:21 PM
Waxing Crescent, 38% visible
METAR KCUT 140453Z AUTO 31021G40KT 280V350 10SM BKN032 OVC040 01/M06 A2989 RMK AO2 PK WND 30041/0441 SLP124 T00061061
Pressure 29.90 in
Visibility 10.0 miles
Clouds Mostly Cloudy 3200 ft
Overcast 4000 ft
Windchill 29 °F
Dew Point 23 °F
Humidity 65%
Rainfall 0.00 in
Snow Depth Not available.
6:56 AM 5:21 PM
Waxing Crescent, 38% visible
METAR KCUT 140453Z AUTO 31021G40KT 280V350 10SM BKN032 OVC040 01/M06 A2989 RMK AO2 PK WND 30041/0441 SLP124 T00061061

10-Day Weather Forecast

Almanac

Astronomy

Feb. 13, 2016 Rise Set
Actual Time
Civil Twilight
Nautical Twilight
Astronomical Twilight
Moon
Length of Visible Light
Length of Day
Tomorrow will be .
, % of the Moon is Illuminated

Today's Extremes

State Highs State Lows

Community

WunderPhotos

Upload Photos

1,892,748 photos uploaded!

WunderBlog® & News

Nearby

Air Quality

  Air Quality AQ Index Pollutant
Not available.

Snow Depth

Station Depth Elevation

Earthquake Activity

City Distance Mag. Time & Date
Minimum magnitude displayed is 2.5.

Coastal Water Temperatures

Place Temperature

Stations

Nearby Weather Stations

Station Location Temp. Windchill Dew Point Humidity Wind Precip. Elev Updated Type
                   

Watches & Warnings

There are currently no watches in effect.